sensor_id;sensor_type;location;lat;lon;timestamp;P1;durP1;ratioP1;P2;durP2;ratioP2
12760;SDS011;6444;49.742;6.114;2023-12-20T00:02:05;3.63;;;3.00;;
12760;SDS011;6444;49.742;6.114;2023-12-20T00:04:32;2.83;;;2.47;;
12760;SDS011;6444;49.742;6.114;2023-12-20T00:06:58;3.73;;;2.40;;
12760;SDS011;6444;49.742;6.114;2023-12-20T00:09:25;3.13;;;2.20;;
12760;SDS011;6444;49.742;6.114;2023-12-20T00:11:51;3.53;;;3.15;;
12760;SDS011;6444;49.742;6.114;2023-12-20T00:14:18;2.80;;;2.50;;
12760;SDS011;6444;49.742;6.114;2023-12-20T00:16:45;4.20;;;3.80;;
12760;SDS011;6444;49.742;6.114;2023-12-20T00:19:11;3.23;;;2.40;;
12760;SDS011;6444;49.742;6.114;2023-12-20T00:21:38;2.80;;;2.13;;
12760;SDS011;6444;49.742;6.114;2023-12-20T00:24:05;4.57;;;3.27;;
12760;SDS011;6444;49.742;6.114;2023-12-20T00:26:31;4.30;;;2.80;;
12760;SDS011;6444;49.742;6.114;2023-12-20T00:28:58;2.30;;;2.10;;
12760;SDS011;6444;49.742;6.114;2023-12-20T00:31:24;2.13;;;1.93;;
12760;SDS011;6444;49.742;6.114;2023-12-20T00:33:51;2.73;;;2.17;;
12760;SDS011;6444;49.742;6.114;2023-12-20T00:36:18;2.10;;;1.90;;
12760;SDS011;6444;49.742;6.114;2023-12-20T00:38:44;2.50;;;2.30;;
12760;SDS011;6444;49.742;6.114;2023-12-20T00:41:11;3.13;;;2.30;;
12760;SDS011;6444;49.742;6.114;2023-12-20T00:43:38;2.00;;;1.80;;
12760;SDS011;6444;49.742;6.114;2023-12-20T00:46:04;2.70;;;2.50;;
12760;SDS011;6444;49.742;6.114;2023-12-20T00:48:31;3.10;;;2.80;;
12760;SDS011;6444;49.742;6.114;2023-12-20T00:50:57;2.30;;;1.80;;
12760;SDS011;6444;49.742;6.114;2023-12-20T00:53:24;1.80;;;1.70;;
12760;SDS011;6444;49.742;6.114;2023-12-20T00:55:51;2.07;;;1.87;;
12760;SDS011;6444;49.742;6.114;2023-12-20T00:58:18;2.00;;;1.80;;
12760;SDS011;6444;49.742;6.114;2023-12-20T01:00:45;2.07;;;1.63;;
12760;SDS011;6444;49.742;6.114;2023-12-20T01:03:11;1.97;;;1.70;;
12760;SDS011;6444;49.742;6.114;2023-12-20T01:05:38;2.20;;;2.00;;
12760;SDS011;6444;49.742;6.114;2023-12-20T01:08:05;3.10;;;2.30;;
12760;SDS011;6444;49.742;6.114;2023-12-20T01:10:31;3.23;;;2.77;;
12760;SDS011;6444;49.742;6.114;2023-12-20T01:12:58;2.83;;;2.30;;
12760;SDS011;6444;49.742;6.114;2023-12-20T01:15:24;2.50;;;2.20;;
12760;SDS011;6444;49.742;6.114;2023-12-20T01:17:51;3.07;;;2.47;;
12760;SDS011;6444;49.742;6.114;2023-12-20T01:20:18;3.00;;;2.70;;
12760;SDS011;6444;49.742;6.114;2023-12-20T01:22:45;4.13;;;3.00;;
12760;SDS011;6444;49.742;6.114;2023-12-20T01:25:12;4.95;;;4.10;;
12760;SDS011;6444;49.742;6.114;2023-12-20T01:27:38;3.43;;;3.10;;
12760;SDS011;6444;49.742;6.114;2023-12-20T01:30:05;3.63;;;3.00;;
12760;SDS011;6444;49.742;6.114;2023-12-20T01:32:32;5.10;;;2.97;;
12760;SDS011;6444;49.742;6.114;2023-12-20T01:34:58;4.57;;;2.97;;
12760;SDS011;6444;49.742;6.114;2023-12-20T01:37:25;3.47;;;2.80;;
12760;SDS011;6444;49.742;6.114;2023-12-20T01:39:52;3.43;;;2.77;;
12760;SDS011;6444;49.742;6.114;2023-12-20T01:42:19;4.30;;;3.90;;
12760;SDS011;6444;49.742;6.114;2023-12-20T01:44:46;3.30;;;2.90;;
12760;SDS011;6444;49.742;6.114;2023-12-20T01:47:12;4.30;;;3.27;;
12760;SDS011;6444;49.742;6.114;2023-12-20T01:49:39;4.17;;;3.40;;
12760;SDS011;6444;49.742;6.114;2023-12-20T01:52:06;3.83;;;3.07;;
12760;SDS011;6444;49.742;6.114;2023-12-20T01:54:32;6.30;;;4.80;;
12760;SDS011;6444;49.742;6.114;2023-12-20T01:56:59;4.43;;;3.50;;
12760;SDS011;6444;49.742;6.114;2023-12-20T01:59:25;5.33;;;3.80;;
12760;SDS011;6444;49.742;6.114;2023-12-20T02:01:53;5.93;;;3.60;;
12760;SDS011;6444;49.742;6.114;2023-12-20T02:04:19;6.20;;;3.97;;
12760;SDS011;6444;49.742;6.114;2023-12-20T02:06:46;4.20;;;3.30;;
12760;SDS011;6444;49.742;6.114;2023-12-20T02:09:13;4.40;;;3.30;;
12760;SDS011;6444;49.742;6.114;2023-12-20T02:11:39;5.30;;;3.90;;
12760;SDS011;6444;49.742;6.114;2023-12-20T02:14:06;7.03;;;4.43;;
12760;SDS011;6444;49.742;6.114;2023-12-20T02:16:32;5.83;;;4.50;;
12760;SDS011;6444;49.742;6.114;2023-12-20T02:18:59;5.67;;;4.20;;
12760;SDS011;6444;49.742;6.114;2023-12-20T02:21:31;6.80;;;4.10;;
12760;SDS011;6444;49.742;6.114;2023-12-20T02:23:53;7.10;;;4.70;;
12760;SDS011;6444;49.742;6.114;2023-12-20T02:26:20;7.50;;;3.97;;
12760;SDS011;6444;49.742;6.114;2023-12-20T02:28:46;6.47;;;4.60;;
12760;SDS011;6444;49.742;6.114;2023-12-20T02:31:13;6.03;;;4.63;;
12760;SDS011;6444;49.742;6.114;2023-12-20T02:33:39;8.67;;;4.00;;
12760;SDS011;6444;49.742;6.114;2023-12-20T02:36:06;8.03;;;4.80;;
12760;SDS011;6444;49.742;6.114;2023-12-20T02:38:33;6.27;;;4.50;;
12760;SDS011;6444;49.742;6.114;2023-12-20T02:40:59;7.30;;;4.40;;
12760;SDS011;6444;49.742;6.114;2023-12-20T02:43:26;6.37;;;4.73;;
12760;SDS011;6444;49.742;6.114;2023-12-20T02:45:53;6.57;;;4.67;;
12760;SDS011;6444;49.742;6.114;2023-12-20T02:48:20;8.03;;;4.30;;
12760;SDS011;6444;49.742;6.114;2023-12-20T02:50:47;8.33;;;5.13;;
12760;SDS011;6444;49.742;6.114;2023-12-20T02:53:13;8.67;;;5.10;;
12760;SDS011;6444;49.742;6.114;2023-12-20T02:55:40;8.37;;;5.60;;
12760;SDS011;6444;49.742;6.114;2023-12-20T02:58:07;10.83;;;6.00;;
12760;SDS011;6444;49.742;6.114;2023-12-20T03:00:34;8.03;;;5.60;;
12760;SDS011;6444;49.742;6.114;2023-12-20T03:03:00;8.83;;;5.33;;
12760;SDS011;6444;49.742;6.114;2023-12-20T03:05:27;11.30;;;7.27;;
12760;SDS011;6444;49.742;6.114;2023-12-20T03:07:54;9.03;;;5.67;;
12760;SDS011;6444;49.742;6.114;2023-12-20T03:10:20;10.93;;;5.37;;
12760;SDS011;6444;49.742;6.114;2023-12-20T03:12:47;8.00;;;4.93;;
12760;SDS011;6444;49.742;6.114;2023-12-20T03:15:14;11.63;;;5.03;;
12760;SDS011;6444;49.742;6.114;2023-12-20T03:17:40;11.60;;;4.70;;
12760;SDS011;6444;49.742;6.114;2023-12-20T03:20:07;13.47;;;5.17;;
12760;SDS011;6444;49.742;6.114;2023-12-20T03:22:34;10.13;;;5.10;;
12760;SDS011;6444;49.742;6.114;2023-12-20T03:25:00;9.63;;;4.87;;
12760;SDS011;6444;49.742;6.114;2023-12-20T03:27:27;9.17;;;4.90;;
12760;SDS011;6444;49.742;6.114;2023-12-20T03:29:54;10.07;;;4.53;;
12760;SDS011;6444;49.742;6.114;2023-12-20T03:32:21;7.80;;;4.73;;
12760;SDS011;6444;49.742;6.114;2023-12-20T03:34:48;10.47;;;5.43;;
12760;SDS011;6444;49.742;6.114;2023-12-20T03:37:14;8.63;;;4.70;;
12760;SDS011;6444;49.742;6.114;2023-12-20T03:39:42;10.43;;;4.17;;
12760;SDS011;6444;49.742;6.114;2023-12-20T03:42:08;8.20;;;4.23;;
12760;SDS011;6444;49.742;6.114;2023-12-20T03:44:38;7.07;;;4.17;;
12760;SDS011;6444;49.742;6.114;2023-12-20T03:47:01;9.57;;;4.53;;
12760;SDS011;6444;49.742;6.114;2023-12-20T03:49:28;11.53;;;4.60;;
12760;SDS011;6444;49.742;6.114;2023-12-20T03:51:55;11.38;;;5.53;;
12760;SDS011;6444;49.742;6.114;2023-12-20T03:54:21;6.90;;;4.13;;
12760;SDS011;6444;49.742;6.114;2023-12-20T03:56:48;10.07;;;4.67;;
12760;SDS011;6444;49.742;6.114;2023-12-20T03:59:15;9.10;;;4.33;;
12760;SDS011;6444;49.742;6.114;2023-12-20T04:01:44;9.63;;;4.43;;
12760;SDS011;6444;49.742;6.114;2023-12-20T04:04:11;9.47;;;3.87;;
12760;SDS011;6444;49.742;6.114;2023-12-20T04:06:37;7.93;;;3.70;;
12760;SDS011;6444;49.742;6.114;2023-12-20T04:09:04;9.93;;;4.00;;
12760;SDS011;6444;49.742;6.114;2023-12-20T04:11:31;8.93;;;4.00;;
12760;SDS011;6444;49.742;6.114;2023-12-20T04:13:58;6.40;;;3.53;;
12760;SDS011;6444;49.742;6.114;2023-12-20T04:16:25;8.73;;;4.33;;
12760;SDS011;6444;49.742;6.114;2023-12-20T04:18:51;8.97;;;3.90;;
12760;SDS011;6444;49.742;6.114;2023-12-20T04:21:19;8.10;;;3.50;;
12760;SDS011;6444;49.742;6.114;2023-12-20T04:23:45;5.30;;;3.60;;
12760;SDS011;6444;49.742;6.114;2023-12-20T04:26:12;11.47;;;3.63;;
12760;SDS011;6444;49.742;6.114;2023-12-20T04:28:38;9.82;;;5.00;;
12760;SDS011;6444;49.742;6.114;2023-12-20T04:31:05;7.00;;;3.87;;
12760;SDS011;6444;49.742;6.114;2023-12-20T04:33:32;9.30;;;3.67;;
12760;SDS011;6444;49.742;6.114;2023-12-20T04:35:58;8.23;;;3.90;;
12760;SDS011;6444;49.742;6.114;2023-12-20T04:38:25;11.83;;;3.77;;
12760;SDS011;6444;49.742;6.114;2023-12-20T04:40:52;5.70;;;3.40;;
12760;SDS011;6444;49.742;6.114;2023-12-20T04:43:19;7.27;;;3.37;;
12760;SDS011;6444;49.742;6.114;2023-12-20T04:45:46;9.80;;;3.53;;
12760;SDS011;6444;49.742;6.114;2023-12-20T04:48:12;8.90;;;3.93;;
12760;SDS011;6444;49.742;6.114;2023-12-20T04:50:39;9.83;;;3.37;;
12760;SDS011;6444;49.742;6.114;2023-12-20T04:53:05;6.40;;;4.60;;
12760;SDS011;6444;49.742;6.114;2023-12-20T04:55:32;12.33;;;3.80;;
12760;SDS011;6444;49.742;6.114;2023-12-20T04:57:59;9.57;;;4.68;;
12760;SDS011;6444;49.742;6.114;2023-12-20T05:00:25;8.63;;;3.60;;
12760;SDS011;6444;49.742;6.114;2023-12-20T05:02:52;10.50;;;3.33;;
12760;SDS011;6444;49.742;6.114;2023-12-20T05:05:20;9.03;;;3.33;;
12760;SDS011;6444;49.742;6.114;2023-12-20T05:07:46;5.80;;;3.10;;
12760;SDS011;6444;49.742;6.114;2023-12-20T05:10:13;8.37;;;3.30;;
12760;SDS011;6444;49.742;6.114;2023-12-20T05:12:39;15.67;;;4.23;;
12760;SDS011;6444;49.742;6.114;2023-12-20T05:15:06;7.40;;;3.23;;
12760;SDS011;6444;49.742;6.114;2023-12-20T05:17:32;6.17;;;3.47;;
12760;SDS011;6444;49.742;6.114;2023-12-20T05:20:00;8.07;;;3.83;;
12760;SDS011;6444;49.742;6.114;2023-12-20T05:22:26;11.37;;;3.97;;
12760;SDS011;6444;49.742;6.114;2023-12-20T05:24:53;10.77;;;4.60;;
12760;SDS011;6444;49.742;6.114;2023-12-20T05:27:20;10.43;;;3.87;;
12760;SDS011;6444;49.742;6.114;2023-12-20T05:29:47;10.43;;;3.50;;
12760;SDS011;6444;49.742;6.114;2023-12-20T05:32:14;8.93;;;3.67;;
12760;SDS011;6444;49.742;6.114;2023-12-20T05:34:40;12.33;;;3.73;;
12760;SDS011;6444;49.742;6.114;2023-12-20T05:37:07;8.13;;;3.03;;
12760;SDS011;6444;49.742;6.114;2023-12-20T05:39:34;14.17;;;3.80;;
12760;SDS011;6444;49.742;6.114;2023-12-20T05:42:00;8.93;;;4.43;;
12760;SDS011;6444;49.742;6.114;2023-12-20T05:44:27;11.87;;;4.40;;
12760;SDS011;6444;49.742;6.114;2023-12-20T05:46:53;6.13;;;3.37;;
12760;SDS011;6444;49.742;6.114;2023-12-20T05:49:20;8.73;;;3.80;;
12760;SDS011;6444;49.742;6.114;2023-12-20T05:51:47;10.03;;;3.33;;
12760;SDS011;6444;49.742;6.114;2023-12-20T05:54:13;11.87;;;4.07;;
12760;SDS011;6444;49.742;6.114;2023-12-20T05:56:40;9.05;;;4.30;;
12760;SDS011;6444;49.742;6.114;2023-12-20T05:59:07;11.17;;;4.00;;
12760;SDS011;6444;49.742;6.114;2023-12-20T06:01:33;12.50;;;4.93;;
12760;SDS011;6444;49.742;6.114;2023-12-20T06:04:00;11.80;;;4.60;;
12760;SDS011;6444;49.742;6.114;2023-12-20T06:06:26;8.33;;;3.50;;
12760;SDS011;6444;49.742;6.114;2023-12-20T06:08:53;6.87;;;2.70;;
12760;SDS011;6444;49.742;6.114;2023-12-20T06:11:20;7.17;;;3.13;;
12760;SDS011;6444;49.742;6.114;2023-12-20T06:13:46;11.57;;;3.10;;
12760;SDS011;6444;49.742;6.114;2023-12-20T06:16:13;13.07;;;5.60;;
12760;SDS011;6444;49.742;6.114;2023-12-20T06:18:40;19.03;;;9.53;;
12760;SDS011;6444;49.742;6.114;2023-12-20T06:21:06;9.13;;;4.27;;
12760;SDS011;6444;49.742;6.114;2023-12-20T06:23:33;15.17;;;3.73;;
12760;SDS011;6444;49.742;6.114;2023-12-20T06:25:59;8.07;;;3.30;;
12760;SDS011;6444;49.742;6.114;2023-12-20T06:28:27;10.55;;;4.28;;
12760;SDS011;6444;49.742;6.114;2023-12-20T06:30:54;8.03;;;3.60;;
12760;SDS011;6444;49.742;6.114;2023-12-20T06:33:21;6.67;;;3.60;;
12760;SDS011;6444;49.742;6.114;2023-12-20T06:35:48;10.77;;;3.33;;
12760;SDS011;6444;49.742;6.114;2023-12-20T06:38:14;6.93;;;3.13;;
12760;SDS011;6444;49.742;6.114;2023-12-20T06:40:41;11.67;;;3.77;;
12760;SDS011;6444;49.742;6.114;2023-12-20T06:43:07;12.73;;;3.43;;
12760;SDS011;6444;49.742;6.114;2023-12-20T06:45:34;9.33;;;3.73;;
12760;SDS011;6444;49.742;6.114;2023-12-20T06:48:01;9.00;;;3.23;;
12760;SDS011;6444;49.742;6.114;2023-12-20T06:50:27;8.87;;;4.43;;
12760;SDS011;6444;49.742;6.114;2023-12-20T06:52:54;7.57;;;3.23;;
12760;SDS011;6444;49.742;6.114;2023-12-20T06:55:20;8.23;;;3.53;;
12760;SDS011;6444;49.742;6.114;2023-12-20T06:57:47;9.53;;;3.40;;
12760;SDS011;6444;49.742;6.114;2023-12-20T07:00:14;14.23;;;5.25;;
12760;SDS011;6444;49.742;6.114;2023-12-20T07:02:40;8.30;;;3.80;;
12760;SDS011;6444;49.742;6.114;2023-12-20T07:05:07;6.90;;;3.77;;
12760;SDS011;6444;49.742;6.114;2023-12-20T07:07:34;8.73;;;3.83;;
12760;SDS011;6444;49.742;6.114;2023-12-20T07:10:00;8.23;;;3.87;;
12760;SDS011;6444;49.742;6.114;2023-12-20T07:12:27;13.63;;;5.33;;
12760;SDS011;6444;49.742;6.114;2023-12-20T07:14:53;9.23;;;4.00;;
12760;SDS011;6444;49.742;6.114;2023-12-20T07:17:20;7.97;;;4.00;;
12760;SDS011;6444;49.742;6.114;2023-12-20T07:19:47;10.27;;;4.60;;
12760;SDS011;6444;49.742;6.114;2023-12-20T07:22:13;14.77;;;5.70;;
12760;SDS011;6444;49.742;6.114;2023-12-20T07:24:40;11.77;;;4.73;;
12760;SDS011;6444;49.742;6.114;2023-12-20T07:27:07;12.75;;;6.03;;
12760;SDS011;6444;49.742;6.114;2023-12-20T07:29:33;13.85;;;6.30;;
12760;SDS011;6444;49.742;6.114;2023-12-20T07:32:00;10.93;;;5.07;;
12760;SDS011;6444;49.742;6.114;2023-12-20T07:34:26;9.57;;;5.37;;
12760;SDS011;6444;49.742;6.114;2023-12-20T07:36:53;15.60;;;5.10;;
12760;SDS011;6444;49.742;6.114;2023-12-20T07:39:20;10.60;;;5.23;;
12760;SDS011;6444;49.742;6.114;2023-12-20T07:41:46;10.83;;;4.30;;
12760;SDS011;6444;49.742;6.114;2023-12-20T07:44:13;9.63;;;4.57;;
12760;SDS011;6444;49.742;6.114;2023-12-20T07:46:40;17.10;;;5.43;;
12760;SDS011;6444;49.742;6.114;2023-12-20T07:49:07;14.50;;;6.27;;
12760;SDS011;6444;49.742;6.114;2023-12-20T07:51:34;15.07;;;5.70;;
12760;SDS011;6444;49.742;6.114;2023-12-20T07:54:01;12.47;;;5.67;;
12760;SDS011;6444;49.742;6.114;2023-12-20T07:56:28;14.60;;;5.73;;
12760;SDS011;6444;49.742;6.114;2023-12-20T07:58:55;11.97;;;5.50;;
12760;SDS011;6444;49.742;6.114;2023-12-20T08:01:22;13.80;;;6.57;;
12760;SDS011;6444;49.742;6.114;2023-12-20T08:03:48;12.80;;;6.13;;
12760;SDS011;6444;49.742;6.114;2023-12-20T08:06:15;12.90;;;7.47;;
12760;SDS011;6444;49.742;6.114;2023-12-20T08:08:42;17.63;;;9.80;;
12760;SDS011;6444;49.742;6.114;2023-12-20T08:11:08;14.13;;;7.07;;
12760;SDS011;6444;49.742;6.114;2023-12-20T08:13:35;14.37;;;6.13;;
12760;SDS011;6444;49.742;6.114;2023-12-20T08:16:01;14.47;;;6.50;;
12760;SDS011;6444;49.742;6.114;2023-12-20T08:18:28;13.43;;;6.40;;
12760;SDS011;6444;49.742;6.114;2023-12-20T08:20:55;13.30;;;6.67;;
12760;SDS011;6444;49.742;6.114;2023-12-20T08:23:22;18.17;;;7.37;;
12760;SDS011;6444;49.742;6.114;2023-12-20T08:25:49;14.90;;;7.73;;
12760;SDS011;6444;49.742;6.114;2023-12-20T08:28:15;11.03;;;6.93;;
12760;SDS011;6444;49.742;6.114;2023-12-20T08:30:42;13.17;;;6.67;;
12760;SDS011;6444;49.742;6.114;2023-12-20T08:33:09;11.33;;;5.97;;
12760;SDS011;6444;49.742;6.114;2023-12-20T08:35:35;12.87;;;6.80;;
12760;SDS011;6444;49.742;6.114;2023-12-20T08:38:02;13.13;;;7.05;;
12760;SDS011;6444;49.742;6.114;2023-12-20T08:40:28;12.97;;;5.77;;
12760;SDS011;6444;49.742;6.114;2023-12-20T08:42:55;15.50;;;6.23;;
12760;SDS011;6444;49.742;6.114;2023-12-20T08:45:22;10.50;;;5.70;;
12760;SDS011;6444;49.742;6.114;2023-12-20T08:47:48;13.00;;;6.00;;
12760;SDS011;6444;49.742;6.114;2023-12-20T08:50:16;11.37;;;5.93;;
12760;SDS011;6444;49.742;6.114;2023-12-20T08:52:42;11.63;;;4.63;;
12760;SDS011;6444;49.742;6.114;2023-12-20T08:55:09;10.07;;;5.37;;
12760;SDS011;6444;49.742;6.114;2023-12-20T08:57:36;14.13;;;5.33;;
12760;SDS011;6444;49.742;6.114;2023-12-20T09:00:03;10.97;;;5.40;;
12760;SDS011;6444;49.742;6.114;2023-12-20T09:02:30;11.90;;;4.83;;
12760;SDS011;6444;49.742;6.114;2023-12-20T09:04:56;10.90;;;4.37;;
12760;SDS011;6444;49.742;6.114;2023-12-20T09:07:23;11.40;;;5.20;;
12760;SDS011;6444;49.742;6.114;2023-12-20T09:09:50;12.07;;;4.83;;
12760;SDS011;6444;49.742;6.114;2023-12-20T09:12:19;10.70;;;4.03;;
12760;SDS011;6444;49.742;6.114;2023-12-20T09:14:46;7.73;;;4.00;;
12760;SDS011;6444;49.742;6.114;2023-12-20T09:17:13;9.53;;;4.47;;
12760;SDS011;6444;49.742;6.114;2023-12-20T09:19:39;10.87;;;3.60;;
12760;SDS011;6444;49.742;6.114;2023-12-20T09:22:06;8.90;;;3.60;;
12760;SDS011;6444;49.742;6.114;2023-12-20T09:24:33;11.87;;;3.80;;
12760;SDS011;6444;49.742;6.114;2023-12-20T09:27:00;9.13;;;3.43;;
12760;SDS011;6444;49.742;6.114;2023-12-20T09:29:26;8.47;;;3.50;;
12760;SDS011;6444;49.742;6.114;2023-12-20T09:31:54;10.47;;;3.97;;
12760;SDS011;6444;49.742;6.114;2023-12-20T09:34:20;10.77;;;3.83;;
12760;SDS011;6444;49.742;6.114;2023-12-20T09:36:47;11.83;;;4.20;;
12760;SDS011;6444;49.742;6.114;2023-12-20T09:39:15;10.80;;;2.97;;
12760;SDS011;6444;49.742;6.114;2023-12-20T09:41:42;7.83;;;3.33;;
12760;SDS011;6444;49.742;6.114;2023-12-20T09:44:08;4.75;;;3.10;;
12760;SDS011;6444;49.742;6.114;2023-12-20T09:46:35;6.62;;;3.17;;
12760;SDS011;6444;49.742;6.114;2023-12-20T09:49:01;5.90;;;3.25;;
12760;SDS011;6444;49.742;6.114;2023-12-20T09:51:28;7.73;;;3.10;;
12760;SDS011;6444;49.742;6.114;2023-12-20T09:53:54;11.15;;;3.55;;
12760;SDS011;6444;49.742;6.114;2023-12-20T09:56:21;9.15;;;3.10;;
12760;SDS011;6444;49.742;6.114;2023-12-20T09:58:47;6.20;;;3.05;;
12760;SDS011;6444;49.742;6.114;2023-12-20T10:01:14;6.00;;;3.43;;
12760;SDS011;6444;49.742;6.114;2023-12-20T10:03:41;6.60;;;3.13;;
12760;SDS011;6444;49.742;6.114;2023-12-20T10:06:08;7.28;;;3.72;;
12760;SDS011;6444;49.742;6.114;2023-12-20T10:08:35;6.20;;;3.05;;
12760;SDS011;6444;49.742;6.114;2023-12-20T10:11:01;10.33;;;4.60;;
12760;SDS011;6444;49.742;6.114;2023-12-20T10:13:28;9.27;;;4.97;;
12760;SDS011;6444;49.742;6.114;2023-12-20T10:15:55;11.93;;;5.33;;
12760;SDS011;6444;49.742;6.114;2023-12-20T10:18:21;7.43;;;3.20;;
12760;SDS011;6444;49.742;6.114;2023-12-20T10:20:48;15.93;;;6.50;;
12760;SDS011;6444;49.742;6.114;2023-12-20T10:23:15;9.83;;;3.43;;
12760;SDS011;6444;49.742;6.114;2023-12-20T10:25:41;7.77;;;2.80;;
12760;SDS011;6444;49.742;6.114;2023-12-20T10:28:09;8.83;;;3.83;;
12760;SDS011;6444;49.742;6.114;2023-12-20T10:30:35;9.70;;;3.33;;
12760;SDS011;6444;49.742;6.114;2023-12-20T10:33:02;9.07;;;2.83;;
12760;SDS011;6444;49.742;6.114;2023-12-20T10:35:28;7.23;;;2.70;;
12760;SDS011;6444;49.742;6.114;2023-12-20T10:37:55;11.50;;;3.10;;
12760;SDS011;6444;49.742;6.114;2023-12-20T10:40:22;12.73;;;3.40;;
12760;SDS011;6444;49.742;6.114;2023-12-20T10:42:49;14.07;;;5.28;;
12760;SDS011;6444;49.742;6.114;2023-12-20T10:45:15;13.90;;;3.78;;
12760;SDS011;6444;49.742;6.114;2023-12-20T10:47:41;10.50;;;3.75;;
12760;SDS011;6444;49.742;6.114;2023-12-20T10:50:08;9.60;;;3.40;;
12760;SDS011;6444;49.742;6.114;2023-12-20T10:52:35;8.63;;;3.37;;
12760;SDS011;6444;49.742;6.114;2023-12-20T10:55:01;13.83;;;2.90;;
12760;SDS011;6444;49.742;6.114;2023-12-20T10:57:28;9.13;;;3.17;;
12760;SDS011;6444;49.742;6.114;2023-12-20T10:59:55;10.60;;;3.72;;
12760;SDS011;6444;49.742;6.114;2023-12-20T11:02:21;7.50;;;3.12;;
12760;SDS011;6444;49.742;6.114;2023-12-20T11:04:53;9.35;;;2.80;;
12760;SDS011;6444;49.742;6.114;2023-12-20T11:07:31;7.45;;;2.75;;
12760;SDS011;6444;49.742;6.114;2023-12-20T11:10:03;8.15;;;2.90;;
12760;SDS011;6444;49.742;6.114;2023-12-20T11:12:53;7.53;;;2.80;;
12760;SDS011;6444;49.742;6.114;2023-12-20T11:15:19;9.27;;;3.30;;
12760;SDS011;6444;49.742;6.114;2023-12-20T11:17:45;9.48;;;2.85;;
12760;SDS011;6444;49.742;6.114;2023-12-20T11:20:12;10.15;;;2.53;;
12760;SDS011;6444;49.742;6.114;2023-12-20T11:22:39;7.22;;;2.60;;
12760;SDS011;6444;49.742;6.114;2023-12-20T11:25:06;4.68;;;2.40;;
12760;SDS011;6444;49.742;6.114;2023-12-20T11:27:32;8.13;;;3.25;;
12760;SDS011;6444;49.742;6.114;2023-12-20T11:29:58;7.50;;;2.45;;
12760;SDS011;6444;49.742;6.114;2023-12-20T11:34:58;8.00;;;2.70;;
12760;SDS011;6444;49.742;6.114;2023-12-20T11:37:30;6.25;;;2.50;;
12760;SDS011;6444;49.742;6.114;2023-12-20T11:40:02;9.85;;;2.70;;
12760;SDS011;6444;49.742;6.114;2023-12-20T11:42:32;8.40;;;2.62;;
12760;SDS011;6444;49.742;6.114;2023-12-20T11:44:55;10.02;;;3.05;;
12760;SDS011;6444;49.742;6.114;2023-12-20T11:47:22;7.18;;;2.60;;
12760;SDS011;6444;49.742;6.114;2023-12-20T11:49:48;9.77;;;2.80;;
12760;SDS011;6444;49.742;6.114;2023-12-20T11:52:15;10.68;;;3.28;;
12760;SDS011;6444;49.742;6.114;2023-12-20T11:54:42;7.55;;;2.30;;
12760;SDS011;6444;49.742;6.114;2023-12-20T11:57:09;6.70;;;2.62;;
12760;SDS011;6444;49.742;6.114;2023-12-20T11:59:36;9.32;;;3.10;;
12760;SDS011;6444;49.742;6.114;2023-12-20T12:02:03;7.70;;;2.80;;
12760;SDS011;6444;49.742;6.114;2023-12-20T12:04:30;9.68;;;3.15;;
12760;SDS011;6444;49.742;6.114;2023-12-20T12:06:56;9.25;;;2.75;;
12760;SDS011;6444;49.742;6.114;2023-12-20T12:09:24;8.17;;;3.03;;
12760;SDS011;6444;49.742;6.114;2023-12-20T12:11:50;12.07;;;3.10;;
12760;SDS011;6444;49.742;6.114;2023-12-20T12:14:17;9.63;;;2.73;;
12760;SDS011;6444;49.742;6.114;2023-12-20T12:16:44;6.53;;;2.80;;
12760;SDS011;6444;49.742;6.114;2023-12-20T12:19:20;9.47;;;3.23;;
12760;SDS011;6444;49.742;6.114;2023-12-20T12:21:46;8.10;;;3.40;;
12760;SDS011;6444;49.742;6.114;2023-12-20T12:24:13;9.25;;;3.90;;
12760;SDS011;6444;49.742;6.114;2023-12-20T12:26:40;8.20;;;3.00;;
12760;SDS011;6444;49.742;6.114;2023-12-20T12:29:09;8.20;;;3.03;;
12760;SDS011;6444;49.742;6.114;2023-12-20T12:31:36;11.27;;;3.30;;
12760;SDS011;6444;49.742;6.114;2023-12-20T12:34:02;9.07;;;2.90;;
12760;SDS011;6444;49.742;6.114;2023-12-20T12:36:30;10.05;;;2.78;;
12760;SDS011;6444;49.742;6.114;2023-12-20T12:38:57;9.15;;;2.47;;
12760;SDS011;6444;49.742;6.114;2023-12-20T12:41:23;7.32;;;2.95;;
12760;SDS011;6444;49.742;6.114;2023-12-20T12:43:49;13.47;;;3.60;;
12760;SDS011;6444;49.742;6.114;2023-12-20T12:46:16;6.20;;;2.67;;
12760;SDS011;6444;49.742;6.114;2023-12-20T12:48:43;8.03;;;3.10;;
12760;SDS011;6444;49.742;6.114;2023-12-20T12:51:09;7.05;;;2.70;;
12760;SDS011;6444;49.742;6.114;2023-12-20T12:53:36;9.93;;;3.58;;
12760;SDS011;6444;49.742;6.114;2023-12-20T12:56:03;7.07;;;3.15;;
12760;SDS011;6444;49.742;6.114;2023-12-20T12:58:29;10.00;;;3.42;;
12760;SDS011;6444;49.742;6.114;2023-12-20T13:00:56;10.18;;;2.87;;
12760;SDS011;6444;49.742;6.114;2023-12-20T13:03:23;7.47;;;3.57;;
12760;SDS011;6444;49.742;6.114;2023-12-20T13:05:50;8.30;;;3.40;;
12760;SDS011;6444;49.742;6.114;2023-12-20T13:08:16;8.33;;;3.60;;
12760;SDS011;6444;49.742;6.114;2023-12-20T13:10:43;6.43;;;3.33;;
12760;SDS011;6444;49.742;6.114;2023-12-20T13:13:10;11.20;;;3.13;;
12760;SDS011;6444;49.742;6.114;2023-12-20T13:15:36;9.63;;;3.07;;
12760;SDS011;6444;49.742;6.114;2023-12-20T13:18:03;8.57;;;2.90;;
12760;SDS011;6444;49.742;6.114;2023-12-20T13:20:30;8.53;;;2.93;;
12760;SDS011;6444;49.742;6.114;2023-12-20T13:22:56;11.37;;;3.47;;
12760;SDS011;6444;49.742;6.114;2023-12-20T13:25:24;7.40;;;3.40;;
12760;SDS011;6444;49.742;6.114;2023-12-20T13:27:50;7.73;;;3.37;;
12760;SDS011;6444;49.742;6.114;2023-12-20T13:30:17;12.77;;;5.77;;
12760;SDS011;6444;49.742;6.114;2023-12-20T13:32:44;9.70;;;4.10;;
12760;SDS011;6444;49.742;6.114;2023-12-20T13:35:11;11.07;;;4.07;;
12760;SDS011;6444;49.742;6.114;2023-12-20T13:37:38;9.20;;;4.20;;
12760;SDS011;6444;49.742;6.114;2023-12-20T13:40:04;9.03;;;3.63;;
12760;SDS011;6444;49.742;6.114;2023-12-20T13:42:31;12.40;;;4.30;;
12760;SDS011;6444;49.742;6.114;2023-12-20T13:44:58;8.73;;;3.17;;
12760;SDS011;6444;49.742;6.114;2023-12-20T13:47:24;8.33;;;3.53;;
12760;SDS011;6444;49.742;6.114;2023-12-20T13:49:51;10.20;;;3.20;;
12760;SDS011;6444;49.742;6.114;2023-12-20T13:52:17;8.13;;;3.30;;
12760;SDS011;6444;49.742;6.114;2023-12-20T13:54:44;12.52;;;3.97;;
12760;SDS011;6444;49.742;6.114;2023-12-20T13:57:11;9.70;;;3.23;;
12760;SDS011;6444;49.742;6.114;2023-12-20T13:59:37;8.00;;;2.83;;
12760;SDS011;6444;49.742;6.114;2023-12-20T14:02:05;13.53;;;3.17;;
12760;SDS011;6444;49.742;6.114;2023-12-20T14:04:31;10.13;;;3.03;;
12760;SDS011;6444;49.742;6.114;2023-12-20T14:06:58;6.53;;;3.00;;
12760;SDS011;6444;49.742;6.114;2023-12-20T14:09:24;8.80;;;3.40;;
12760;SDS011;6444;49.742;6.114;2023-12-20T14:11:51;10.40;;;2.83;;
12760;SDS011;6444;49.742;6.114;2023-12-20T14:14:18;9.93;;;3.20;;
12760;SDS011;6444;49.742;6.114;2023-12-20T14:16:44;13.80;;;3.67;;
12760;SDS011;6444;49.742;6.114;2023-12-20T14:19:11;9.03;;;2.93;;
12760;SDS011;6444;49.742;6.114;2023-12-20T14:21:38;8.40;;;2.95;;
12760;SDS011;6444;49.742;6.114;2023-12-20T14:24:04;8.03;;;2.40;;
12760;SDS011;6444;49.742;6.114;2023-12-20T14:26:31;6.57;;;3.00;;
12760;SDS011;6444;49.742;6.114;2023-12-20T14:28:58;7.73;;;2.83;;
12760;SDS011;6444;49.742;6.114;2023-12-20T14:31:25;12.77;;;3.27;;
12760;SDS011;6444;49.742;6.114;2023-12-20T14:33:51;9.27;;;3.00;;
12760;SDS011;6444;49.742;6.114;2023-12-20T14:36:19;9.63;;;2.77;;
12760;SDS011;6444;49.742;6.114;2023-12-20T14:38:45;10.93;;;3.70;;
12760;SDS011;6444;49.742;6.114;2023-12-20T14:41:15;13.40;;;3.13;;
12760;SDS011;6444;49.742;6.114;2023-12-20T14:43:42;7.43;;;2.60;;
12760;SDS011;6444;49.742;6.114;2023-12-20T14:46:09;11.03;;;3.23;;
12760;SDS011;6444;49.742;6.114;2023-12-20T14:48:35;7.43;;;3.07;;
12760;SDS011;6444;49.742;6.114;2023-12-20T14:51:02;6.47;;;2.60;;
12760;SDS011;6444;49.742;6.114;2023-12-20T14:53:29;7.87;;;2.40;;
12760;SDS011;6444;49.742;6.114;2023-12-20T14:55:55;8.57;;;2.70;;
12760;SDS011;6444;49.742;6.114;2023-12-20T14:58:22;12.52;;;3.22;;